Farmington River @ Unionville, Ct

Farmington River at Unionville
 Total Drainage Area: 378 sq. miles 
 Drainage Area Controlled by Corps Dams: 139 sq. miles (37%) 
 Warning Flow/Stage: 3,770 cfs / 9.0 feet 
 Flood Flow/Stage: 9,130 cfs / 12.0 feet 
Date Time
(Eastern)
Stage
(ft)
Flow
(cfs)
CSM
(cfs / sq. mi.)
Jan-31 02:30 pm 7.26 1,726 4.6
Jan-31 01:30 pm 7.26 1,726 4.6
Jan-31 12:30 pm 7.26 1,726 4.6
Jan-31 11:30 am 7.27 1,735 4.6
Jan-31 10:30 am 7.27 1,735 4.6
Jan-31 09:30 am 7.26 1,726 4.6
Jan-31 08:30 am 7.27 1,735 4.6
Jan-31 07:30 am 7.27 1,735 4.6
Jan-31 06:30 am 7.28 1,744 4.6
Jan-31 05:30 am 7.28 1,744 4.6
Jan-31 04:30 am 7.28 1,744 4.6
Jan-31 03:30 am 7.28 1,744 4.6
Jan-31 02:30 am 7.29 1,752 4.6
Jan-31 01:30 am 7.29 1,752 4.6
Jan-31 12:30 am 7.29 1,752 4.6
Jan-30 11:30 pm 7.29 1,752 4.6
Jan-30 10:30 pm 7.28 1,744 4.6
Jan-30 09:30 pm 7.30 1,761 4.7
Jan-30 08:30 pm 7.30 1,761 4.7
Jan-30 07:30 pm 7.30 1,761 4.7
Jan-30 06:30 pm 7.29 1,752 4.6
Jan-30 05:30 pm 7.23 1,700 4.5
Jan-30 04:30 pm 6.91 1,436 3.8
Jan-30 03:30 pm 6.86 1,397 3.7
Jan-30 02:30 pm 6.87 1,405 3.7
Report Generated January 31, 2023 03:02 pm